createdAt,value
2023-05-18T00:03:19.554Z,67.05
2023-05-18T00:08:21.064Z,67.64
2023-05-18T00:13:22.319Z,67.82
2023-05-18T00:18:23.278Z,67.60
2023-05-18T00:23:31.311Z,68.28
2023-05-18T00:28:32.216Z,68.76
2023-05-18T00:33:33.116Z,68.85
2023-05-18T00:38:33.927Z,68.44
2023-05-18T00:43:34.808Z,68.31
2023-05-18T00:48:35.973Z,68.41
2023-05-18T00:53:36.986Z,69.07
2023-05-18T00:58:38.859Z,68.46
2023-05-18T01:03:40.477Z,68.16
2023-05-18T01:08:43.210Z,68.58
2023-05-18T01:13:57.985Z,68.85
2023-05-18T01:19:37.681Z,68.34
2023-05-18T01:24:43.538Z,68.64
2023-05-18T01:29:45.494Z,68.00
2023-05-18T01:34:48.705Z,68.49
2023-05-18T01:39:49.625Z,67.73
2023-05-18T01:44:56.393Z,67.62
2023-05-18T01:50:09.818Z,68.13
2023-05-18T01:55:13.723Z,69.32
2023-05-18T02:00:16.699Z,73.39
2023-05-18T02:05:17.532Z,76.05
2023-05-18T02:10:18.934Z,72.92
2023-05-18T02:15:20.611Z,73.19
2023-05-18T02:20:23.232Z,73.19
2023-05-18T02:25:25.912Z,73.13
2023-05-18T02:30:26.777Z,74.12
2023-05-18T02:35:28.274Z,73.72
2023-05-18T02:40:29.409Z,74.07
2023-05-18T02:45:30.699Z,73.03
2023-05-18T02:50:32.312Z,73.80
2023-05-18T02:55:33.270Z,73.20
2023-05-18T03:00:43.479Z,74.27
2023-05-18T03:05:44.452Z,74.70
2023-05-18T03:10:45.310Z,76.19
2023-05-18T03:15:46.696Z,77.06
2023-05-18T03:20:51.339Z,79.62
2023-05-18T03:25:53.682Z,79.00
2023-05-18T03:30:57.115Z,78.98
2023-05-18T03:36:04.110Z,78.78
2023-05-18T03:41:05.433Z,80.01
2023-05-18T03:46:06.690Z,83.05
2023-05-18T03:51:08.296Z,82.42
2023-05-18T03:56:09.207Z,82.41
2023-05-18T04:01:10.272Z,83.17
2023-05-18T04:06:11.273Z,84.82
2023-05-18T04:11:12.166Z,87.54
2023-05-18T04:16:14.069Z,87.86
2023-05-18T04:21:15.530Z,87.51
2023-05-18T04:26:19.211Z,90.17
2023-05-18T04:31:21.216Z,89.13
2023-05-18T04:36:25.283Z,88.93
2023-05-18T04:41:26.213Z,88.54
2023-05-18T04:46:27.919Z,89.01
2023-05-18T04:51:29.114Z,89.69
2023-05-18T04:56:30.186Z,89.27
2023-05-18T05:01:31.294Z,88.65
2023-05-18T05:06:32.463Z,88.21
2023-05-18T05:11:33.936Z,84.42
2023-05-18T05:16:35.339Z,86.25
2023-05-18T05:21:36.368Z,85.27
2023-05-18T05:26:37.529Z,82.98
2023-05-18T05:31:38.565Z,81.92
2023-05-18T05:36:39.674Z,75.36
2023-05-18T05:41:40.982Z,74.83
2023-05-18T05:46:42.065Z,72.02
2023-05-18T05:51:44.554Z,69.10
2023-05-18T05:56:45.581Z,68.73
2023-05-18T06:01:47.566Z,64.61
2023-05-18T06:06:48.816Z,69.17
2023-05-18T06:11:52.027Z,65.50
2023-05-18T06:16:53.423Z,63.31
2023-05-18T06:21:55.045Z,63.66
2023-05-18T06:26:57.271Z,61.94
2023-05-18T06:32:21.585Z,61.78
2023-05-18T06:37:27.832Z,59.12
2023-05-18T06:42:28.737Z,60.95
2023-05-18T06:47:55.262Z,61.99
2023-05-18T06:52:57.460Z,59.06
2023-05-18T06:57:58.384Z,60.97
2023-05-18T07:03:00.733Z,58.95
2023-05-18T07:08:04.229Z,58.18
2023-05-18T07:13:05.314Z,59.61
2023-05-18T07:18:06.385Z,60.74
2023-05-18T07:23:07.881Z,59.83
2023-05-18T07:28:08.923Z,58.44
2023-05-18T07:33:10.200Z,61.32
2023-05-18T07:38:11.345Z,58.69
2023-05-18T07:43:12.265Z,62.36
2023-05-18T07:48:13.236Z,63.01
2023-05-18T07:53:14.611Z,62.66
2023-05-18T07:58:15.406Z,59.77
2023-05-18T08:03:17.634Z,58.09
2023-05-18T08:08:19.621Z,56.04
2023-05-18T08:13:20.476Z,56.10
2023-05-18T08:18:21.837Z,60.15
2023-05-18T08:23:25.764Z,57.58
2023-05-18T08:28:26.770Z,58.48
2023-05-18T08:33:27.677Z,60.46
2023-05-18T08:38:28.518Z,60.50
2023-05-18T08:43:32.674Z,62.25
2023-05-18T08:48:35.650Z,55.55
2023-05-18T08:53:37.273Z,55.50
2023-05-18T08:58:44.781Z,52.15
2023-05-18T09:03:50.416Z,52.57
2023-05-18T09:08:56.898Z,50.03
2023-05-18T09:13:59.982Z,48.94
2023-05-18T09:19:00.972Z,51.19
2023-05-18T09:24:02.700Z,47.82
2023-05-18T09:29:19.131Z,48.14
2023-05-18T09:34:20.857Z,46.76
2023-05-18T09:39:21.746Z,47.98
2023-05-18T09:44:35.289Z,49.76
2023-05-18T09:49:36.961Z,51.31
2023-05-18T09:54:39.265Z,44.80
2023-05-18T09:59:40.715Z,45.62
2023-05-18T10:04:43.090Z,48.05
2023-05-18T10:09:45.434Z,46.44
2023-05-18T10:14:46.421Z,42.68
2023-05-18T10:19:53.451Z,39.45
2023-05-18T10:24:56.330Z,43.11
2023-05-18T10:29:57.950Z,43.81
2023-05-18T10:34:59.880Z,44.13
2023-05-18T10:40:03.219Z,45.95
2023-05-18T10:45:06.728Z,41.56
2023-05-18T10:50:09.224Z,45.67
2023-05-18T10:55:10.456Z,47.78
2023-05-18T11:00:12.783Z,41.46
2023-05-18T11:05:13.798Z,44.55
2023-05-18T11:10:14.899Z,45.18
2023-05-18T11:15:18.274Z,43.94
2023-05-18T11:20:25.062Z,41.92
2023-05-18T11:26:04.778Z,43.24
2023-05-18T11:31:05.745Z,46.85
2023-05-18T11:36:12.824Z,42.95
2023-05-18T11:43:06.471Z,44.54
2023-05-18T11:48:07.717Z,45.03
2023-05-18T11:53:15.409Z,43.60
2023-05-18T11:58:19.610Z,48.56
2023-05-18T12:03:25.054Z,44.42
2023-05-18T12:08:28.870Z,45.14
2023-05-18T12:13:30.015Z,42.72
2023-05-18T12:18:34.371Z,44.82
2023-05-18T12:23:39.032Z,42.16
2023-05-18T12:28:40.076Z,43.07
2023-05-18T12:33:42.363Z,45.31
2023-05-18T12:38:47.388Z,41.06
2023-05-18T12:43:48.436Z,44.05
2023-05-18T12:49:00.878Z,43.25
2023-05-18T12:54:03.411Z,42.96
2023-05-18T12:59:07.573Z,41.94
2023-05-18T13:04:10.507Z,43.97
2023-05-18T13:09:12.370Z,42.97
2023-05-18T13:14:13.283Z,41.12
2023-05-18T13:19:20.126Z,42.20
2023-05-18T13:24:21.074Z,45.73
2023-05-18T13:29:21.978Z,44.70
2023-05-18T13:34:22.820Z,43.79
2023-05-18T13:39:23.647Z,46.75
2023-05-18T13:44:24.474Z,41.54
2023-05-18T13:49:25.604Z,43.32
2023-05-18T13:54:26.402Z,45.97
2023-05-18T13:59:27.303Z,43.43
2023-05-18T14:04:28.179Z,43.47
2023-05-18T14:09:29.264Z,44.15
2023-05-18T14:14:30.390Z,41.42
2023-05-18T14:19:31.272Z,42.99
2023-05-18T14:24:32.396Z,42.92
2023-05-18T14:29:35.861Z,40.86
2023-05-18T14:34:37.051Z,41.59
2023-05-18T14:39:38.399Z,44.03
2023-05-18T14:44:39.241Z,42.34
2023-05-18T14:49:40.180Z,43.53
2023-05-18T14:54:41.783Z,42.10
2023-05-18T14:59:42.706Z,42.89
2023-05-18T15:04:43.565Z,42.60
2023-05-18T15:09:44.356Z,43.03
2023-05-18T15:14:45.217Z,43.85
2023-05-18T15:19:46.893Z,41.53
2023-05-18T15:24:47.937Z,42.50
2023-05-18T15:29:48.840Z,41.63
2023-05-18T15:34:50.883Z,42.73
2023-05-18T15:39:53.061Z,43.53
2023-05-18T15:44:53.936Z,44.00
2023-05-18T15:49:57.017Z,43.20
2023-05-18T15:54:59.163Z,43.96
2023-05-18T16:00:00.205Z,42.01
2023-05-18T16:05:01.188Z,41.05
2023-05-18T16:10:02.038Z,42.75
2023-05-18T16:15:03.596Z,43.28
2023-05-18T16:20:05.520Z,43.22
2023-05-18T16:25:07.068Z,44.31
2023-05-18T16:30:08.584Z,44.88
2023-05-18T16:35:10.601Z,43.25
2023-05-18T16:40:11.655Z,44.18
2023-05-18T16:45:12.587Z,44.34
2023-05-18T16:50:13.407Z,44.52
2023-05-18T16:55:14.903Z,44.99
2023-05-18T17:00:17.758Z,43.69
2023-05-18T17:05:23.395Z,44.37
2023-05-18T17:10:24.313Z,42.25
2023-05-18T17:15:25.220Z,43.72
2023-05-18T17:20:26.602Z,42.77
2023-05-18T17:25:27.679Z,44.17
2023-05-18T17:30:28.712Z,42.88
2023-05-18T17:35:30.032Z,42.41
2023-05-18T17:40:30.983Z,43.33
2023-05-18T17:45:32.071Z,44.29
2023-05-18T17:50:33.221Z,43.70
2023-05-18T17:55:34.540Z,44.18
2023-05-18T18:00:35.717Z,45.32
2023-05-18T18:05:37.075Z,45.77
2023-05-18T18:10:37.990Z,43.94
2023-05-18T18:15:38.856Z,45.47
2023-05-18T18:20:39.738Z,45.60
2023-05-18T18:25:40.578Z,44.41
2023-05-18T18:30:43.397Z,45.86
2023-05-18T18:35:44.420Z,46.95
2023-05-18T18:40:45.392Z,46.68
2023-05-18T18:45:46.224Z,46.95
2023-05-18T18:50:47.454Z,46.94
2023-05-18T18:55:48.758Z,47.86
2023-05-18T19:00:50.067Z,49.15
2023-05-18T19:05:50.850Z,49.97
2023-05-18T19:10:51.720Z,50.06
2023-05-18T19:15:52.943Z,51.19
2023-05-18T19:20:54.115Z,51.70
2023-05-18T19:25:55.077Z,52.17
2023-05-18T19:30:56.325Z,53.34
2023-05-18T19:35:57.184Z,54.88
2023-05-18T19:40:58.040Z,55.77
2023-05-18T19:45:59.115Z,55.47
2023-05-18T19:51:00.138Z,57.23
2023-05-18T19:56:00.951Z,57.26
2023-05-18T20:01:02.443Z,57.66
2023-05-18T20:06:03.892Z,57.66
2023-05-18T20:11:05.276Z,57.73
2023-05-18T20:16:06.230Z,57.85
2023-05-18T20:21:08.008Z,57.96
2023-05-18T20:26:08.830Z,58.33
2023-05-18T20:31:10.130Z,57.59
2023-05-18T20:36:11.205Z,57.56
2023-05-18T20:41:12.059Z,57.64
2023-05-18T20:46:13.011Z,57.69
2023-05-18T20:51:16.437Z,58.64
2023-05-18T20:56:18.138Z,58.36
2023-05-18T21:01:20.601Z,58.57
2023-05-18T21:06:21.425Z,59.50
2023-05-18T21:11:22.307Z,59.42
2023-05-18T21:16:23.181Z,59.48
2023-05-18T21:21:24.300Z,58.50
2023-05-18T21:26:25.726Z,58.05
2023-05-18T21:31:27.145Z,59.41
2023-05-18T21:36:34.649Z,58.85
2023-05-18T21:41:38.365Z,58.94
2023-05-18T21:46:39.381Z,59.53
2023-05-18T21:51:40.359Z,59.09
2023-05-18T21:56:41.610Z,58.79
2023-05-18T22:01:42.618Z,59.62
2023-05-18T22:06:43.509Z,59.58
2023-05-18T22:11:45.630Z,59.90
2023-05-18T22:16:46.889Z,61.07
2023-05-18T22:21:47.805Z,61.06
2023-05-18T22:26:48.601Z,61.08
2023-05-18T22:31:49.718Z,60.99
2023-05-18T22:36:50.552Z,61.69
2023-05-18T22:41:51.366Z,61.99
2023-05-18T22:46:52.307Z,61.63
2023-05-18T22:51:53.243Z,61.64
2023-05-18T22:56:54.064Z,61.37
2023-05-18T23:01:55.092Z,61.35
2023-05-18T23:06:56.325Z,61.61
2023-05-18T23:11:58.644Z,63.40
2023-05-18T23:16:59.727Z,61.10
2023-05-18T23:22:00.591Z,62.43
2023-05-18T23:27:01.488Z,62.66
2023-05-18T23:32:02.880Z,61.91
2023-05-18T23:37:10.892Z,61.45
2023-05-18T23:42:12.918Z,62.52
2023-05-18T23:47:15.473Z,62.80
2023-05-18T23:52:22.130Z,62.87
2023-05-18T23:57:23.378Z,64.81
